createdAt,value
2022-12-09T00:01:34.813Z,10.10
2022-12-09T00:03:36.598Z,8.90
2022-12-09T00:05:39.574Z,9.65
2022-12-09T00:07:42.512Z,8.93
2022-12-09T00:09:44.557Z,9.20
2022-12-09T00:11:46.287Z,10.00
2022-12-09T00:13:48.807Z,9.88
2022-12-09T00:15:50.337Z,11.43
2022-12-09T00:17:52.327Z,10.32
2022-12-09T00:19:53.797Z,9.88
2022-12-09T00:21:55.334Z,10.18
2022-12-09T00:24:03.853Z,9.73
2022-12-09T00:26:05.527Z,9.88
2022-12-09T00:28:07.036Z,10.93
2022-12-09T00:30:09.516Z,10.43
2022-12-09T00:32:11.501Z,10.40
2022-12-09T00:34:13.435Z,9.63
2022-12-09T00:36:17.074Z,9.68
2022-12-09T00:38:18.575Z,10.35
2022-12-09T00:40:21.757Z,9.85
2022-12-09T00:42:23.292Z,9.38
2022-12-09T00:44:25.012Z,9.45
2022-12-09T00:46:26.834Z,9.98
2022-12-09T00:48:28.882Z,10.20
2022-12-09T00:50:30.510Z,10.32
2022-12-09T00:52:32.189Z,11.00
2022-12-09T00:54:33.976Z,11.18
2022-12-09T00:56:36.845Z,12.40
2022-12-09T00:58:38.723Z,12.40
2022-12-09T01:00:40.975Z,11.50
2022-12-09T01:02:42.853Z,12.68
2022-12-09T01:04:44.636Z,11.00
2022-12-09T01:06:46.196Z,12.25
2022-12-09T01:08:47.767Z,10.80
2022-12-09T01:10:49.622Z,10.18
2022-12-09T01:12:52.478Z,12.23
2022-12-09T01:14:54.123Z,11.38
2022-12-09T01:16:55.913Z,11.85
2022-12-09T01:18:59.423Z,10.32
2022-12-09T01:21:01.021Z,9.48
2022-12-09T01:23:03.482Z,10.63
2022-12-09T01:25:05.916Z,9.27
2022-12-09T01:27:07.668Z,9.68
2022-12-09T01:29:10.522Z,9.38
2022-12-09T01:31:14.693Z,10.15
2022-12-09T01:33:16.332Z,11.02
2022-12-09T01:35:18.279Z,11.55
2022-12-09T01:37:19.839Z,11.25
2022-12-09T01:39:21.304Z,10.65
2022-12-09T01:41:23.375Z,10.68
2022-12-09T01:43:25.061Z,8.95
2022-12-09T01:45:48.713Z,10.07
2022-12-09T01:47:54.438Z,12.20
2022-12-09T01:49:56.140Z,11.60
2022-12-09T01:52:03.453Z,14.25
2022-12-09T01:54:05.647Z,11.65
2022-12-09T01:56:11.023Z,10.65
2022-12-09T01:58:13.602Z,12.48
2022-12-09T02:00:15.710Z,11.38
2022-12-09T02:02:20.294Z,11.93
2022-12-09T02:04:22.139Z,11.70
2022-12-09T02:06:23.908Z,10.90
2022-12-09T02:08:25.658Z,11.70
2022-12-09T02:10:28.079Z,12.80
2022-12-09T02:12:37.805Z,11.10
2022-12-09T02:14:42.834Z,11.48
2022-12-09T02:16:53.383Z,11.18
2022-12-09T02:19:05.261Z,10.45
2022-12-09T02:21:11.817Z,10.90
2022-12-09T02:23:21.914Z,12.95
2022-12-09T02:25:30.335Z,11.43
2022-12-09T02:27:37.238Z,12.70
2022-12-09T02:29:59.061Z,11.00
2022-12-09T02:32:36.020Z,11.98
2022-12-09T02:34:43.826Z,12.30
2022-12-09T02:36:56.653Z,12.23
2022-12-09T02:39:00.321Z,12.57
2022-12-09T02:41:06.994Z,13.55
2022-12-09T02:43:10.989Z,13.10
2022-12-09T02:45:14.810Z,13.52
2022-12-09T02:47:19.915Z,12.25
2022-12-09T02:49:25.038Z,12.35
2022-12-09T02:51:32.482Z,13.15
2022-12-09T02:53:35.895Z,12.38
2022-12-09T02:55:39.325Z,13.20
2022-12-09T02:57:41.177Z,12.15
2022-12-09T02:59:42.675Z,12.10
2022-12-09T03:01:51.180Z,12.70
2022-12-09T03:03:54.488Z,13.95
2022-12-09T03:06:01.584Z,13.38
2022-12-09T03:08:14.588Z,12.52
2022-12-09T03:10:23.596Z,12.43
2022-12-09T03:12:32.724Z,13.25
2022-12-09T03:14:40.291Z,12.85
2022-12-09T03:16:47.178Z,12.98
2022-12-09T03:18:54.952Z,12.48
2022-12-09T03:20:57.335Z,12.85
2022-12-09T03:23:00.355Z,12.18
2022-12-09T03:25:08.883Z,12.35
2022-12-09T03:27:15.749Z,12.30
2022-12-09T03:29:21.303Z,13.48
2022-12-09T03:31:27.136Z,11.80
2022-12-09T03:33:30.718Z,11.75
2022-12-09T03:35:37.614Z,12.80
2022-12-09T03:37:42.096Z,12.32
2022-12-09T03:39:45.147Z,12.15
2022-12-09T03:41:52.400Z,12.30
2022-12-09T03:43:57.954Z,12.63
2022-12-09T03:45:59.884Z,12.55
2022-12-09T03:48:02.387Z,13.82
2022-12-09T03:50:05.787Z,12.27
2022-12-09T03:52:13.485Z,11.70
2022-12-09T03:54:18.987Z,13.07
2022-12-09T03:56:23.149Z,11.32
2022-12-09T03:58:27.507Z,10.90
2022-12-09T04:00:30.516Z,10.93
2022-12-09T04:02:32.236Z,10.82
2022-12-09T04:04:34.864Z,11.93
2022-12-09T04:06:37.060Z,11.00
2022-12-09T04:08:38.985Z,12.23
2022-12-09T04:10:40.981Z,11.45
2022-12-09T04:12:42.855Z,11.52
2022-12-09T04:14:46.412Z,11.63
2022-12-09T04:16:48.251Z,11.57
2022-12-09T04:18:49.848Z,11.63
2022-12-09T04:20:51.365Z,10.38
2022-12-09T04:22:52.985Z,11.57
2022-12-09T04:24:54.831Z,12.65
2022-12-09T04:26:56.475Z,11.93
2022-12-09T04:28:58.034Z,12.25
2022-12-09T04:31:01.068Z,11.02
2022-12-09T04:33:02.938Z,11.07
2022-12-09T04:35:05.540Z,11.20
2022-12-09T04:37:07.434Z,11.93
2022-12-09T04:39:09.104Z,13.93
2022-12-09T04:41:11.712Z,13.23
2022-12-09T04:43:13.405Z,12.75
2022-12-09T04:45:15.331Z,14.10
2022-12-09T04:47:18.272Z,12.15
2022-12-09T04:49:19.892Z,12.40
2022-12-09T04:51:21.413Z,11.90
2022-12-09T04:53:24.235Z,12.65
2022-12-09T04:55:26.059Z,10.70
2022-12-09T04:57:27.803Z,12.63
2022-12-09T04:59:30.425Z,11.35
2022-12-09T05:01:32.527Z,12.50
2022-12-09T05:03:36.276Z,10.80
2022-12-09T05:05:40.033Z,13.45
2022-12-09T05:07:42.237Z,10.05
2022-12-09T05:09:44.011Z,13.00
2022-12-09T05:11:45.821Z,12.35
2022-12-09T05:13:47.875Z,13.00
2022-12-09T05:15:49.965Z,11.40
2022-12-09T05:17:51.917Z,12.23
2022-12-09T05:19:55.338Z,11.88
2022-12-09T05:21:57.453Z,12.60
2022-12-09T05:23:59.209Z,12.02
2022-12-09T05:26:03.618Z,13.77
2022-12-09T05:28:05.213Z,12.02
2022-12-09T05:30:08.542Z,12.82
2022-12-09T05:32:10.530Z,11.40
2022-12-09T05:34:12.319Z,11.85
2022-12-09T05:36:17.697Z,14.50
2022-12-09T05:38:19.564Z,13.90
2022-12-09T05:40:21.798Z,12.50
2022-12-09T05:42:23.316Z,11.45
2022-12-09T05:44:25.038Z,11.82
2022-12-09T05:46:26.856Z,11.68
2022-12-09T05:48:29.441Z,9.82
2022-12-09T05:50:31.180Z,12.10
2022-12-09T05:52:36.445Z,11.73
2022-12-09T05:54:38.165Z,11.60
2022-12-09T05:56:46.171Z,11.48
2022-12-09T05:58:50.420Z,10.60
2022-12-09T06:00:52.118Z,10.10
2022-12-09T06:02:54.184Z,10.93
2022-12-09T06:04:56.307Z,11.02
2022-12-09T06:06:58.169Z,12.38
2022-12-09T06:09:02.235Z,12.65
2022-12-09T06:11:04.893Z,11.23
2022-12-09T06:13:07.255Z,11.05
2022-12-09T06:15:10.738Z,11.15
2022-12-09T06:17:13.687Z,11.43
2022-12-09T06:19:15.415Z,11.20
2022-12-09T06:21:18.539Z,12.15
2022-12-09T06:23:20.816Z,12.02
2022-12-09T06:25:23.962Z,14.70
2022-12-09T06:27:25.861Z,16.30
2022-12-09T06:29:28.863Z,15.50
2022-12-09T06:31:30.497Z,27.38
2022-12-09T06:35:54.275Z,23.48
2022-12-09T06:37:55.949Z,22.33
2022-12-09T06:39:57.687Z,27.27
2022-12-09T06:42:00.625Z,29.30
2022-12-09T06:44:02.750Z,15.18
2022-12-09T06:46:11.985Z,17.23
2022-12-09T06:48:13.913Z,18.45
2022-12-09T06:50:16.196Z,21.13
2022-12-09T06:52:17.918Z,15.07
2022-12-09T06:54:19.526Z,19.88
2022-12-09T06:56:21.591Z,15.77
2022-12-09T06:58:24.499Z,16.00
2022-12-09T07:00:26.715Z,21.77
2022-12-09T07:02:34.095Z,13.82
2022-12-09T07:04:37.616Z,15.52
2022-12-09T07:06:41.139Z,16.95
2022-12-09T07:08:42.796Z,17.63
2022-12-09T07:10:45.114Z,20.08
2022-12-09T07:12:47.017Z,48.85
2022-12-09T07:14:50.322Z,28.05
2022-12-09T07:16:52.151Z,18.30
2022-12-09T07:18:54.598Z,18.05
2022-12-09T07:20:56.333Z,16.90
2022-12-09T07:22:58.082Z,15.40
2022-12-09T07:24:59.808Z,14.93
2022-12-09T07:27:07.517Z,13.85
2022-12-09T07:29:10.660Z,13.55
2022-12-09T07:31:20.136Z,15.35
2022-12-09T07:33:22.075Z,14.27
2022-12-09T07:35:24.183Z,11.95
2022-12-09T07:37:25.790Z,13.60
2022-12-09T07:39:27.485Z,12.63
2022-12-09T07:41:29.639Z,11.57
2022-12-09T07:43:33.021Z,13.27
2022-12-09T07:45:34.980Z,11.45
2022-12-09T07:47:38.479Z,12.52
2022-12-09T07:49:40.555Z,12.45
2022-12-09T07:51:42.765Z,12.40
2022-12-09T07:53:47.129Z,10.60
2022-12-09T07:55:49.536Z,12.40
2022-12-09T07:57:51.040Z,11.80
2022-12-09T07:59:52.854Z,11.73
2022-12-09T08:01:54.888Z,11.30
2022-12-09T08:03:58.224Z,13.70
2022-12-09T08:06:00.342Z,12.07
2022-12-09T08:08:02.318Z,13.95
2022-12-09T08:10:05.243Z,12.90
2022-12-09T08:12:07.082Z,12.90
2022-12-09T08:14:12.873Z,12.13
2022-12-09T08:16:17.494Z,11.75
2022-12-09T08:18:19.628Z,12.68
2022-12-09T08:20:28.824Z,12.65
2022-12-09T08:22:31.205Z,12.52
2022-12-09T08:24:33.371Z,12.23
2022-12-09T08:26:35.308Z,12.25
2022-12-09T08:28:37.463Z,12.80
2022-12-09T08:30:39.682Z,11.80
2022-12-09T08:32:41.706Z,11.93
2022-12-09T08:34:43.573Z,12.30
2022-12-09T08:36:46.592Z,12.38
2022-12-09T08:38:48.201Z,12.93
2022-12-09T08:40:50.010Z,12.90
2022-12-09T08:42:51.898Z,12.88
2022-12-09T08:45:00.189Z,14.13
2022-12-09T08:47:03.812Z,13.73
2022-12-09T08:49:06.419Z,12.48
2022-12-09T08:51:10.569Z,12.77
2022-12-09T08:53:13.870Z,12.90
2022-12-09T08:55:15.747Z,14.13
2022-12-09T08:57:21.660Z,12.45
2022-12-09T08:59:24.452Z,15.65
2022-12-09T09:01:29.205Z,15.45
2022-12-09T09:03:31.739Z,16.17
2022-12-09T09:05:34.286Z,17.20
2022-12-09T09:07:37.287Z,14.52
2022-12-09T09:09:40.605Z,14.77
2022-12-09T09:11:43.997Z,22.83
2022-12-09T09:13:48.006Z,16.08
2022-12-09T09:15:49.715Z,15.50
2022-12-09T09:17:53.205Z,16.33
2022-12-09T09:19:55.165Z,15.23
2022-12-09T09:21:57.092Z,16.75
2022-12-09T09:23:59.712Z,15.95
2022-12-09T09:26:03.353Z,15.35
2022-12-09T09:28:05.652Z,14.40
2022-12-09T09:30:09.176Z,14.50
2022-12-09T09:32:11.054Z,15.93
2022-12-09T09:34:13.420Z,16.02
2022-12-09T09:36:17.002Z,16.10
2022-12-09T09:38:18.830Z,16.20
2022-12-09T09:40:21.068Z,15.30
2022-12-09T09:42:30.905Z,15.00
2022-12-09T09:44:35.349Z,14.43
2022-12-09T09:46:39.887Z,14.40
2022-12-09T09:48:42.299Z,13.77
2022-12-09T09:50:51.821Z,16.08
2022-12-09T09:52:55.245Z,18.63
2022-12-09T09:54:57.842Z,15.15
2022-12-09T09:57:05.760Z,14.07
2022-12-09T09:59:19.586Z,13.95
2022-12-09T10:01:25.697Z,14.68
2022-12-09T10:03:41.076Z,15.65
2022-12-09T10:05:49.915Z,13.70
2022-12-09T10:07:54.683Z,16.02
2022-12-09T10:10:03.964Z,13.23
2022-12-09T10:12:15.980Z,15.30
2022-12-09T10:14:28.515Z,15.40
2022-12-09T10:16:35.778Z,13.73
2022-12-09T10:18:48.096Z,15.45
2022-12-09T10:20:50.314Z,14.70
2022-12-09T10:22:56.719Z,16.10
2022-12-09T10:25:05.557Z,14.82
2022-12-09T10:27:18.624Z,14.60
2022-12-09T10:29:28.502Z,14.05
2022-12-09T10:31:31.297Z,14.40
2022-12-09T10:33:37.229Z,14.50
2022-12-09T10:35:39.702Z,16.38
2022-12-09T10:37:41.747Z,15.32
2022-12-09T10:39:47.222Z,15.18
2022-12-09T10:41:53.356Z,16.73
2022-12-09T10:44:19.702Z,15.68
2022-12-09T10:46:23.431Z,16.23
2022-12-09T10:48:33.045Z,15.93
2022-12-09T10:50:37.200Z,15.73
2022-12-09T10:52:45.369Z,15.93
2022-12-09T10:54:48.304Z,14.35
2022-12-09T10:57:22.140Z,14.95
2022-12-09T10:59:25.793Z,16.10
2022-12-09T11:01:29.687Z,18.90
2022-12-09T11:03:34.381Z,15.68
2022-12-09T11:05:36.761Z,13.98
2022-12-09T11:07:38.632Z,16.20
2022-12-09T11:09:42.795Z,17.35
2022-12-09T11:11:46.567Z,16.35
2022-12-09T11:13:48.798Z,16.42
2022-12-09T11:15:52.828Z,17.10
2022-12-09T11:17:59.510Z,17.23
2022-12-09T11:20:19.524Z,17.25
2022-12-09T11:22:25.945Z,22.77
2022-12-09T11:24:27.761Z,17.60
2022-12-09T11:26:35.821Z,17.35
2022-12-09T11:28:40.133Z,16.55
2022-12-09T11:31:19.914Z,17.20
2022-12-09T11:33:25.380Z,17.08
2022-12-09T11:35:32.319Z,16.77
2022-12-09T11:37:38.612Z,18.25
2022-12-09T11:39:40.421Z,17.38
2022-12-09T11:41:47.239Z,18.00
2022-12-09T11:43:52.255Z,20.23
2022-12-09T11:45:53.806Z,17.83
2022-12-09T11:50:28.753Z,15.90
2022-12-09T11:52:30.961Z,19.20
2022-12-09T11:54:40.281Z,16.38
2022-12-09T11:56:42.906Z,17.27
2022-12-09T11:58:49.490Z,19.67
2022-12-09T12:00:58.196Z,18.83
2022-12-09T12:03:10.478Z,16.50
2022-12-09T12:05:21.827Z,17.35
2022-12-09T12:07:32.244Z,19.00
2022-12-09T12:09:38.133Z,15.65
2022-12-09T12:11:47.541Z,19.45
2022-12-09T12:13:50.720Z,15.88
2022-12-09T12:16:03.073Z,17.65
2022-12-09T12:18:10.885Z,17.23
2022-12-09T12:20:13.997Z,15.05
2022-12-09T12:22:35.621Z,14.77
2022-12-09T12:25:17.203Z,17.25
2022-12-09T12:27:35.575Z,19.60
2022-12-09T12:29:46.459Z,18.30
2022-12-09T12:32:14.885Z,25.65
2022-12-09T12:34:33.051Z,16.60
2022-12-09T12:36:47.898Z,17.15
2022-12-09T12:39:02.730Z,18.48
2022-12-09T12:41:14.052Z,16.38
2022-12-09T12:43:34.388Z,17.77
2022-12-09T12:45:53.186Z,21.40
2022-12-09T12:48:02.744Z,18.80
2022-12-09T12:50:39.646Z,21.50
2022-12-09T12:52:55.953Z,19.58
2022-12-09T12:55:14.406Z,18.80
2022-12-09T12:57:23.886Z,18.20
2022-12-09T12:59:35.333Z,18.33
2022-12-09T13:01:47.934Z,18.70
2022-12-09T13:04:00.596Z,18.25
2022-12-09T13:06:02.933Z,19.98
2022-12-09T13:08:09.409Z,19.13
2022-12-09T13:10:20.828Z,15.48
2022-12-09T13:12:26.390Z,16.83
2022-12-09T13:14:35.047Z,16.35
2022-12-09T13:16:41.044Z,16.98
2022-12-09T13:18:43.721Z,18.75
2022-12-09T13:20:48.830Z,20.80
2022-12-09T13:22:57.058Z,17.13
2022-12-09T13:25:12.637Z,17.85
2022-12-09T13:27:20.754Z,16.70
2022-12-09T13:29:34.368Z,16.60
2022-12-09T13:31:38.931Z,16.83
2022-12-09T13:33:49.712Z,17.23
2022-12-09T13:35:58.381Z,16.88
2022-12-09T13:38:00.750Z,17.67
2022-12-09T13:40:06.069Z,16.92
2022-12-09T13:42:33.389Z,16.08
2022-12-09T13:44:37.441Z,16.25
2022-12-09T13:46:39.597Z,16.65
2022-12-09T13:48:46.884Z,17.90
2022-12-09T13:50:55.997Z,16.52
2022-12-09T13:53:00.702Z,15.52
2022-12-09T13:55:02.244Z,17.05
2022-12-09T13:57:15.024Z,16.33
2022-12-09T13:59:43.421Z,16.75
2022-12-09T14:01:49.008Z,15.10
2022-12-09T14:03:57.309Z,16.65
2022-12-09T14:06:01.902Z,15.02
2022-12-09T14:08:07.144Z,14.40
2022-12-09T14:10:36.503Z,15.20
2022-12-09T14:13:03.994Z,16.17
2022-12-09T14:15:35.722Z,14.63
2022-12-09T14:18:00.132Z,15.23
2022-12-09T14:20:15.306Z,14.50
2022-12-09T14:22:34.180Z,15.30
2022-12-09T14:24:35.760Z,16.50
2022-12-09T14:26:43.602Z,14.48
2022-12-09T14:28:54.746Z,17.52
2022-12-09T14:31:02.029Z,15.48
2022-12-09T14:33:21.652Z,15.25
2022-12-09T14:35:31.223Z,14.18
2022-12-09T14:38:02.163Z,14.57
2022-12-09T14:40:38.798Z,14.80
2022-12-09T14:42:47.999Z,14.57
2022-12-09T14:44:55.943Z,14.52
2022-12-09T14:47:26.004Z,13.52
2022-12-09T14:49:29.760Z,16.80
2022-12-09T14:51:35.913Z,18.73
2022-12-09T14:53:38.180Z,20.38
2022-12-09T14:55:40.928Z,20.17
2022-12-09T14:57:46.917Z,20.05
2022-12-09T14:59:50.653Z,18.77
2022-12-09T15:01:55.353Z,20.60
2022-12-09T15:03:58.748Z,21.42
2022-12-09T15:06:02.373Z,22.20
2022-12-09T15:08:04.013Z,15.15
2022-12-09T15:10:17.170Z,17.30
2022-12-09T15:12:21.430Z,18.58
2022-12-09T15:14:24.481Z,16.88
2022-12-09T15:16:26.659Z,15.25
2022-12-09T15:18:28.297Z,19.23
2022-12-09T15:20:32.708Z,19.35
2022-12-09T15:22:34.339Z,18.00
2022-12-09T15:24:49.567Z,18.60
2022-12-09T15:26:57.443Z,24.60
2022-12-09T15:28:59.576Z,18.23
2022-12-09T15:31:04.237Z,21.77
2022-12-09T15:33:14.137Z,18.17
2022-12-09T15:35:17.434Z,20.63
2022-12-09T15:37:22.283Z,19.42
2022-12-09T15:39:27.929Z,17.90
2022-12-09T15:41:33.800Z,15.20
2022-12-09T15:43:37.113Z,16.77
2022-12-09T15:45:42.826Z,48.08
2022-12-09T15:47:51.236Z,32.70
2022-12-09T15:49:56.078Z,35.13
2022-12-09T15:52:00.825Z,27.35
2022-12-09T15:54:06.143Z,37.88
2022-12-09T15:56:11.813Z,53.10
2022-12-09T15:58:16.865Z,41.70
2022-12-09T16:00:19.339Z,38.35
2022-12-09T16:02:25.192Z,25.65
2022-12-09T16:04:30.980Z,26.33
2022-12-09T16:06:35.752Z,24.67
2022-12-09T16:08:40.224Z,27.40
2022-12-09T16:10:46.782Z,23.90
2022-12-09T16:13:05.721Z,20.05
2022-12-09T16:15:10.233Z,17.70
2022-12-09T16:17:20.784Z,25.85
2022-12-09T16:19:32.293Z,17.45
2022-12-09T16:21:36.135Z,16.13
2022-12-09T16:23:38.024Z,16.60
2022-12-09T16:25:44.596Z,15.65
2022-12-09T16:27:48.805Z,16.15
2022-12-09T16:29:53.147Z,17.23
2022-12-09T16:32:18.627Z,15.80
2022-12-09T16:34:20.573Z,15.70
2022-12-09T16:36:27.278Z,18.98
2022-12-09T16:38:30.061Z,20.35
2022-12-09T16:41:00.816Z,18.70
2022-12-09T16:43:19.217Z,17.27
2022-12-09T16:45:24.571Z,16.27
2022-12-09T16:47:26.197Z,15.75
2022-12-09T16:49:28.167Z,15.30
2022-12-09T16:51:31.493Z,16.85
2022-12-09T16:53:38.860Z,32.05
2022-12-09T16:55:49.320Z,20.38
2022-12-09T16:57:51.774Z,22.65
2022-12-09T16:59:53.668Z,21.20
2022-12-09T17:01:55.724Z,33.80
2022-12-09T17:04:00.873Z,18.75
2022-12-09T17:06:02.457Z,17.08
2022-12-09T17:08:05.571Z,19.17
2022-12-09T17:10:08.302Z,16.77
2022-12-09T17:12:09.934Z,18.58
2022-12-09T17:14:11.579Z,20.65
2022-12-09T17:16:13.407Z,19.00
2022-12-09T17:18:15.112Z,17.67
2022-12-09T17:20:16.913Z,18.25
2022-12-09T17:22:18.780Z,17.90
2022-12-09T17:24:21.789Z,21.05
2022-12-09T17:26:23.623Z,19.73
2022-12-09T17:28:29.871Z,19.15
2022-12-09T17:30:37.081Z,18.63
2022-12-09T17:32:38.770Z,16.85
2022-12-09T17:34:40.530Z,16.75
2022-12-09T17:36:42.380Z,15.25
2022-12-09T17:38:44.843Z,15.50
2022-12-09T17:40:47.916Z,14.77
2022-12-09T17:42:49.709Z,14.75
2022-12-09T17:44:51.274Z,16.02
2022-12-09T17:46:52.913Z,15.07
2022-12-09T17:48:54.592Z,16.75
2022-12-09T17:50:56.509Z,15.13
2022-12-09T17:52:58.083Z,14.98
2022-12-09T17:54:59.570Z,15.52
2022-12-09T17:57:02.421Z,16.45
2022-12-09T17:59:06.451Z,15.70
2022-12-09T18:01:13.323Z,15.35
2022-12-09T18:03:27.421Z,15.80
2022-12-09T18:05:36.997Z,16.10
2022-12-09T18:07:38.502Z,15.63
2022-12-09T18:09:40.023Z,16.40
2022-12-09T18:11:41.664Z,15.40
2022-12-09T18:13:44.615Z,14.80
2022-12-09T18:15:49.773Z,16.63
2022-12-09T18:17:55.592Z,14.75
2022-12-09T18:19:57.213Z,14.85
2022-12-09T18:21:58.734Z,16.23
2022-12-09T18:24:00.302Z,15.60
2022-12-09T18:26:05.814Z,15.93
2022-12-09T18:28:08.055Z,25.85
2022-12-09T18:30:12.048Z,17.73
2022-12-09T18:32:13.560Z,28.17
2022-12-09T18:34:15.312Z,21.60
2022-12-09T18:36:18.852Z,16.45
2022-12-09T18:38:20.419Z,18.33
2022-12-09T18:40:21.946Z,19.13
2022-12-09T18:42:23.445Z,16.95
2022-12-09T18:44:24.960Z,17.58
2022-12-09T18:46:31.135Z,17.45
2022-12-09T18:48:33.063Z,17.65
2022-12-09T18:50:36.606Z,18.50
2022-12-09T18:52:38.154Z,17.30
2022-12-09T18:54:39.746Z,19.17
2022-12-09T18:56:41.226Z,16.88
2022-12-09T18:59:05.424Z,22.70
2022-12-09T19:01:14.177Z,20.23
2022-12-09T19:03:17.116Z,26.02
2022-12-09T19:05:18.619Z,24.48
2022-12-09T19:07:20.138Z,21.48
2022-12-09T19:09:24.016Z,22.58
2022-12-09T19:11:27.845Z,22.30
2022-12-09T19:13:30.196Z,20.45
2022-12-09T19:15:31.758Z,19.17
2022-12-09T19:17:33.350Z,17.73
2022-12-09T19:19:36.314Z,17.85
2022-12-09T19:21:38.331Z,19.25
2022-12-09T19:23:41.528Z,17.20
2022-12-09T19:25:43.195Z,17.38
2022-12-09T19:27:44.720Z,17.40
2022-12-09T19:29:46.212Z,18.52
2022-12-09T19:31:52.969Z,18.75
2022-12-09T19:33:57.378Z,18.25
2022-12-09T19:36:04.138Z,18.13
2022-12-09T19:38:05.651Z,17.95
2022-12-09T19:40:08.678Z,16.98
2022-12-09T19:42:10.307Z,18.23
2022-12-09T19:44:21.518Z,16.10
2022-12-09T19:46:33.736Z,15.30
2022-12-09T19:48:36.422Z,17.45
2022-12-09T19:50:38.046Z,16.77
2022-12-09T19:52:41.053Z,16.98
2022-12-09T19:54:42.508Z,15.60
2022-12-09T19:56:45.118Z,15.02
2022-12-09T19:58:47.309Z,17.55
2022-12-09T20:00:48.794Z,23.45
2022-12-09T20:02:50.418Z,18.23
2022-12-09T20:04:52.003Z,33.95
2022-12-09T20:06:53.598Z,22.15
2022-12-09T20:08:56.600Z,19.92
2022-12-09T20:10:58.094Z,22.80
2022-12-09T20:12:59.625Z,16.85
2022-12-09T20:15:01.165Z,16.52
2022-12-09T20:17:02.745Z,27.83
2022-12-09T20:19:04.291Z,22.45
2022-12-09T20:21:07.668Z,17.85
2022-12-09T20:23:09.508Z,25.80
2022-12-09T20:25:12.469Z,15.95
2022-12-09T20:27:14.069Z,18.48
2022-12-09T20:29:15.586Z,24.27
2022-12-09T20:31:19.322Z,17.88
2022-12-09T20:33:20.883Z,21.48
2022-12-09T20:35:23.535Z,17.55
2022-12-09T20:37:25.176Z,15.82
2022-12-09T20:39:26.773Z,25.30
2022-12-09T20:41:30.259Z,32.67
2022-12-09T20:43:32.329Z,32.53
2022-12-09T20:45:34.051Z,21.58
2022-12-09T20:47:35.776Z,17.88
2022-12-09T20:49:37.267Z,16.23
2022-12-09T20:51:40.613Z,17.42
2022-12-09T20:53:43.811Z,16.70
2022-12-09T20:55:54.953Z,17.50
2022-12-09T20:57:57.880Z,16.08
2022-12-09T20:59:59.473Z,17.00
2022-12-09T21:02:01.028Z,16.20
2022-12-09T21:04:04.547Z,15.80
2022-12-09T21:06:07.162Z,14.98
2022-12-09T21:08:08.856Z,15.85
2022-12-09T21:10:10.641Z,14.70
2022-12-09T21:12:12.286Z,17.65
2022-12-09T21:14:16.420Z,17.02
2022-12-09T21:16:20.586Z,22.35
2022-12-09T21:18:22.106Z,28.13
2022-12-09T21:20:23.681Z,51.35
2022-12-09T21:22:25.240Z,29.88
2022-12-09T21:24:26.784Z,31.83
2022-12-09T21:26:28.738Z,18.83
2022-12-09T21:28:30.283Z,28.65
2022-12-09T21:30:33.167Z,22.90
2022-12-09T21:32:34.993Z,18.75
2022-12-09T21:34:36.506Z,16.60
2022-12-09T21:36:40.424Z,15.65
2022-12-09T21:38:42.779Z,18.58
2022-12-09T21:40:44.314Z,17.80
2022-12-09T21:42:45.776Z,16.83
2022-12-09T21:44:47.315Z,15.57
2022-12-09T21:46:50.294Z,16.73
2022-12-09T21:48:56.041Z,16.45
2022-12-09T21:51:02.624Z,16.50
2022-12-09T21:53:04.124Z,15.02
2022-12-09T21:55:06.280Z,14.15
2022-12-09T21:57:07.819Z,15.52
2022-12-09T21:59:10.745Z,15.20
2022-12-09T22:01:14.293Z,17.50
2022-12-09T22:03:17.310Z,14.75
2022-12-09T22:05:19.016Z,16.10
2022-12-09T22:07:20.682Z,14.57
2022-12-09T22:09:22.358Z,16.25
2022-12-09T22:11:25.899Z,14.40
2022-12-09T22:13:27.850Z,15.85
2022-12-09T22:15:29.480Z,14.43
2022-12-09T22:17:32.104Z,16.65
2022-12-09T22:19:35.111Z,17.00
2022-12-09T22:21:37.347Z,17.15
2022-12-09T22:23:38.993Z,18.67
2022-12-09T22:25:40.497Z,19.13
2022-12-09T22:27:42.024Z,17.23
2022-12-09T22:29:43.554Z,15.80
2022-12-09T22:31:46.313Z,17.65
2022-12-09T22:33:48.882Z,16.10
2022-12-09T22:35:51.763Z,17.63
2022-12-09T22:37:53.233Z,18.02
2022-12-09T22:39:54.832Z,16.08
2022-12-09T22:41:56.437Z,15.95
2022-12-09T22:43:57.957Z,15.98
2022-12-09T22:46:02.975Z,16.38
2022-12-09T22:48:04.823Z,17.13
2022-12-09T22:50:08.127Z,15.02
2022-12-09T22:52:11.106Z,14.40
2022-12-09T22:54:13.422Z,17.00
2022-12-09T22:56:15.237Z,17.45
2022-12-09T22:58:16.726Z,16.58
2022-12-09T23:00:18.404Z,17.00
2022-12-09T23:02:20.075Z,16.10
2022-12-09T23:04:21.892Z,15.93
2022-12-09T23:06:24.780Z,15.38
2022-12-09T23:08:27.646Z,16.40
2022-12-09T23:10:29.237Z,17.55
2022-12-09T23:12:30.743Z,16.70
2022-12-09T23:14:32.251Z,16.40
2022-12-09T23:16:33.745Z,17.23
2022-12-09T23:18:35.973Z,16.27
2022-12-09T23:20:37.514Z,16.38
2022-12-09T23:22:39.031Z,16.83
2022-12-09T23:24:41.888Z,16.50
2022-12-09T23:26:43.795Z,17.50
2022-12-09T23:28:47.641Z,16.05
2022-12-09T23:30:49.171Z,17.90
2022-12-09T23:32:50.690Z,15.77
2022-12-09T23:34:52.176Z,16.15
2022-12-09T23:36:53.671Z,17.02
2022-12-09T23:38:55.172Z,16.15
2022-12-09T23:40:58.020Z,16.60
2022-12-09T23:42:59.598Z,15.60
2022-12-09T23:45:01.127Z,16.45
2022-12-09T23:47:04.473Z,16.70
2022-12-09T23:49:06.612Z,16.02
2022-12-09T23:51:12.159Z,17.15
2022-12-09T23:53:13.723Z,17.65
2022-12-09T23:55:15.221Z,16.45
2022-12-09T23:57:18.164Z,17.38
2022-12-09T23:59:21.507Z,16.17
